createdAt,value
2017-06-30T00:00:21.355Z,1.40
2017-06-30T00:02:49.025Z,1.43
2017-06-30T00:05:15.993Z,1.40
2017-06-30T00:07:42.814Z,1.47
2017-06-30T00:10:09.647Z,1.43
2017-06-30T00:12:37.266Z,1.30
2017-06-30T00:15:04.086Z,1.63
2017-06-30T00:17:30.998Z,1.30
2017-06-30T00:19:58.572Z,1.70
2017-06-30T00:22:25.498Z,1.27
2017-06-30T00:24:53.104Z,1.40
2017-06-30T00:27:36.618Z,1.13
2017-06-30T00:30:04.942Z,1.40
2017-06-30T00:32:31.891Z,1.47
2017-06-30T00:34:58.813Z,1.37
2017-06-30T00:37:25.643Z,1.40
2017-06-30T00:39:52.518Z,1.33
2017-06-30T00:42:19.334Z,1.60
2017-06-30T00:44:46.226Z,1.90
2017-06-30T00:47:13.051Z,1.43
2017-06-30T00:49:39.995Z,1.67
2017-06-30T00:52:06.839Z,1.60
2017-06-30T00:54:33.651Z,1.47
2017-06-30T00:57:00.566Z,1.97
2017-06-30T00:59:28.224Z,1.80
2017-06-30T01:01:55.044Z,1.63
2017-06-30T01:04:21.935Z,1.30
2017-06-30T01:06:48.894Z,2.10
2017-06-30T01:09:15.723Z,1.83
2017-06-30T01:11:42.637Z,1.63
2017-06-30T01:14:09.475Z,1.47
2017-06-30T01:16:36.363Z,1.47
2017-06-30T01:19:03.240Z,1.60
2017-06-30T01:21:30.083Z,1.57
2017-06-30T01:23:56.979Z,1.80
2017-06-30T01:26:23.819Z,1.60
2017-06-30T01:28:51.402Z,1.50
2017-06-30T01:31:18.299Z,1.77
2017-06-30T01:33:45.139Z,1.60
2017-06-30T01:36:12.052Z,1.50
2017-06-30T01:38:38.908Z,1.90
2017-06-30T01:41:05.811Z,1.93
2017-06-30T01:43:33.439Z,1.77
2017-06-30T01:46:00.354Z,2.00
2017-06-30T01:48:27.175Z,2.13
2017-06-30T01:50:54.182Z,1.67
2017-06-30T01:53:21.011Z,1.90
2017-06-30T01:55:47.860Z,1.80
2017-06-30T01:58:14.774Z,2.00
2017-06-30T02:00:41.614Z,2.57
2017-06-30T02:03:08.528Z,2.10
2017-06-30T02:05:36.100Z,2.00
2017-06-30T02:08:03.020Z,2.37
2017-06-30T02:10:30.411Z,1.83
2017-06-30T02:12:57.326Z,2.10
2017-06-30T02:15:24.901Z,1.80
2017-06-30T02:17:52.479Z,1.90
2017-06-30T02:20:19.393Z,2.37
2017-06-30T02:22:46.977Z,2.40
2017-06-30T02:25:14.603Z,2.67
2017-06-30T02:27:41.439Z,1.93
2017-06-30T02:30:08.638Z,2.10
2017-06-30T02:32:35.551Z,2.23
2017-06-30T02:35:02.388Z,2.03
2017-06-30T02:37:29.384Z,2.83
2017-06-30T02:39:56.312Z,1.90
2017-06-30T02:42:23.155Z,2.10
2017-06-30T02:44:50.804Z,2.40
2017-06-30T02:47:17.647Z,2.57
2017-06-30T02:49:44.546Z,1.97
2017-06-30T02:52:11.367Z,2.23
2017-06-30T02:54:38.259Z,1.87
2017-06-30T02:57:05.082Z,2.13
2017-06-30T02:59:32.026Z,1.83
2017-06-30T03:01:58.879Z,2.00
2017-06-30T03:04:25.783Z,1.80
2017-06-30T03:06:52.716Z,1.90
2017-06-30T03:09:20.292Z,1.87
2017-06-30T03:11:47.125Z,1.43
2017-06-30T03:14:14.758Z,1.77
2017-06-30T03:16:41.601Z,1.97
2017-06-30T03:19:08.500Z,1.97
2017-06-30T03:21:35.406Z,1.70
2017-06-30T03:24:02.315Z,1.50
2017-06-30T03:26:29.158Z,1.40
2017-06-30T03:28:56.082Z,1.50
2017-06-30T03:31:22.928Z,1.67
2017-06-30T03:33:49.830Z,1.93
2017-06-30T03:36:16.671Z,1.40
2017-06-30T03:38:43.551Z,1.60
2017-06-30T03:41:10.465Z,1.80
2017-06-30T03:43:38.055Z,1.70
2017-06-30T03:46:04.967Z,1.37
2017-06-30T03:48:32.398Z,1.97
2017-06-30T03:56:46.463Z,1.53
2017-06-30T03:59:13.395Z,1.70
2017-06-30T04:01:40.308Z,1.67
2017-06-30T04:04:07.235Z,1.90
2017-06-30T04:06:34.095Z,2.10
2017-06-30T04:09:00.940Z,2.10
2017-06-30T04:11:28.014Z,1.87
2017-06-30T04:13:54.871Z,2.27
2017-06-30T04:16:21.716Z,2.60
2017-06-30T04:18:48.624Z,2.80
2017-06-30T04:21:15.551Z,2.50
2017-06-30T04:23:48.018Z,2.90
2017-06-30T04:26:19.221Z,2.20
2017-06-30T04:31:43.965Z,3.10
2017-06-30T04:34:11.269Z,2.53
2017-06-30T04:36:38.491Z,2.70
2017-06-30T04:39:05.404Z,2.50
2017-06-30T04:41:33.451Z,2.90
2017-06-30T04:44:04.204Z,3.00
2017-06-30T04:46:32.232Z,2.47
2017-06-30T04:49:08.811Z,2.07
2017-06-30T04:51:35.672Z,3.07
2017-06-30T04:54:03.260Z,2.77
2017-06-30T04:56:30.296Z,2.23
2017-06-30T04:58:57.148Z,2.40
2017-06-30T05:01:24.081Z,2.90
2017-06-30T05:03:51.062Z,2.20
2017-06-30T05:06:17.933Z,2.57
2017-06-30T05:08:46.612Z,2.20
2017-06-30T05:11:13.522Z,2.10
2017-06-30T05:13:40.350Z,2.67
2017-06-30T05:16:07.267Z,2.27
2017-06-30T05:18:34.845Z,2.20
2017-06-30T05:21:02.504Z,2.27
2017-06-30T05:23:30.113Z,2.03
2017-06-30T05:25:57.028Z,2.90
2017-06-30T05:28:23.880Z,1.80
2017-06-30T05:30:50.727Z,2.70
2017-06-30T05:33:17.700Z,2.03
2017-06-30T05:35:44.535Z,2.90
2017-06-30T05:38:11.375Z,2.93
2017-06-30T05:40:38.283Z,2.37
2017-06-30T05:43:05.950Z,2.47
2017-06-30T05:45:32.848Z,2.17
2017-06-30T05:47:59.691Z,2.27
2017-06-30T05:50:26.606Z,2.37
2017-06-30T05:52:53.519Z,2.70
2017-06-30T05:55:21.127Z,2.67
2017-06-30T05:57:48.044Z,2.40
2017-06-30T06:00:15.004Z,2.67
2017-06-30T06:02:41.833Z,3.27
2017-06-30T06:05:08.786Z,3.07
2017-06-30T06:07:35.690Z,3.30
2017-06-30T06:10:02.545Z,2.50
2017-06-30T06:12:29.481Z,2.70
2017-06-30T06:14:56.331Z,2.40
2017-06-30T06:17:23.154Z,2.20
2017-06-30T06:19:50.068Z,2.50
2017-06-30T06:22:16.893Z,2.73
2017-06-30T06:24:43.803Z,2.30
2017-06-30T06:27:10.646Z,2.30
2017-06-30T06:29:37.556Z,2.60
2017-06-30T06:32:04.413Z,2.43
2017-06-30T06:34:31.338Z,2.13
2017-06-30T06:36:58.182Z,1.90
2017-06-30T06:39:25.139Z,2.10
2017-06-30T06:41:51.986Z,2.60
2017-06-30T06:44:21.217Z,1.47
2017-06-30T06:46:49.595Z,2.37
2017-06-30T06:49:18.098Z,2.20
2017-06-30T06:51:46.437Z,2.00
2017-06-30T06:54:14.132Z,2.10
2017-06-30T06:56:41.732Z,3.33
2017-06-30T06:59:09.550Z,2.00
2017-06-30T07:01:38.223Z,2.27
2017-06-30T07:04:07.055Z,2.40
2017-06-30T07:06:34.305Z,2.80
2017-06-30T07:09:02.435Z,1.70
2017-06-30T07:11:30.656Z,2.23
2017-06-30T07:13:59.048Z,2.30
2017-06-30T07:16:26.525Z,1.60
2017-06-30T07:18:56.743Z,1.90
2017-06-30T07:21:24.625Z,2.20
2017-06-30T07:23:52.241Z,2.00
2017-06-30T07:26:20.056Z,1.60
2017-06-30T07:28:49.093Z,2.00
2017-06-30T07:31:17.756Z,1.97
2017-06-30T07:33:45.434Z,2.23
2017-06-30T07:36:12.316Z,1.60
2017-06-30T07:38:39.163Z,1.90
2017-06-30T07:41:06.093Z,1.77
2017-06-30T07:43:33.679Z,1.67
2017-06-30T07:46:00.519Z,1.70
2017-06-30T07:48:27.440Z,1.73
2017-06-30T07:50:55.027Z,1.40
2017-06-30T07:53:21.871Z,1.83
2017-06-30T07:55:48.825Z,1.70
2017-06-30T07:58:15.693Z,1.70
2017-06-30T08:00:42.532Z,1.87
2017-06-30T08:03:09.444Z,1.87
2017-06-30T08:05:36.360Z,1.70
2017-06-30T08:08:03.332Z,1.50
2017-06-30T08:10:30.275Z,1.77
2017-06-30T08:12:57.113Z,1.47
2017-06-30T08:15:24.712Z,2.07
2017-06-30T08:17:51.695Z,1.83
2017-06-30T08:20:18.564Z,1.80
2017-06-30T08:22:46.235Z,2.30
2017-06-30T08:25:13.080Z,1.90
2017-06-30T08:27:40.004Z,1.70
2017-06-30T08:30:06.981Z,1.37
2017-06-30T08:32:33.901Z,1.47
2017-06-30T08:35:01.492Z,1.70
2017-06-30T08:37:28.431Z,1.43
2017-06-30T08:39:55.588Z,1.50
2017-06-30T08:42:22.437Z,1.20
2017-06-30T08:44:49.574Z,1.50
2017-06-30T08:47:16.487Z,1.83
2017-06-30T08:49:43.331Z,1.40
2017-06-30T08:52:10.228Z,1.70
2017-06-30T08:54:38.157Z,1.30
2017-06-30T08:57:12.184Z,1.30
2017-06-30T08:59:43.335Z,1.30
2017-06-30T09:02:10.523Z,1.50
2017-06-30T09:04:39.169Z,1.40
2017-06-30T09:07:06.070Z,1.87
2017-06-30T09:09:32.975Z,1.77
2017-06-30T09:11:59.812Z,1.50
2017-06-30T09:14:26.728Z,1.47
2017-06-30T09:16:53.601Z,1.47
2017-06-30T09:19:20.516Z,1.50
2017-06-30T09:21:47.367Z,1.30
2017-06-30T09:24:14.937Z,1.30
2017-06-30T09:26:42.275Z,1.40
2017-06-30T09:29:09.103Z,1.63
2017-06-30T09:31:35.959Z,1.30
2017-06-30T09:34:02.890Z,1.10
2017-06-30T09:36:29.809Z,1.13
2017-06-30T09:38:56.646Z,1.63
2017-06-30T09:41:23.582Z,1.10
2017-06-30T09:43:50.447Z,1.27
2017-06-30T09:46:17.288Z,1.30
2017-06-30T09:48:44.184Z,1.10
2017-06-30T09:51:10.990Z,1.07
2017-06-30T09:53:37.963Z,1.10
2017-06-30T09:56:04.829Z,1.50
2017-06-30T09:58:32.408Z,1.60
2017-06-30T10:00:59.302Z,1.20
2017-06-30T10:03:26.136Z,1.30
2017-06-30T10:05:53.066Z,1.60
2017-06-30T10:08:20.911Z,1.67
2017-06-30T10:10:47.819Z,1.20
2017-06-30T10:13:14.726Z,1.37
2017-06-30T10:15:41.659Z,1.40
2017-06-30T10:18:15.537Z,1.27
2017-06-30T10:20:42.975Z,1.30
2017-06-30T10:23:09.834Z,1.23
2017-06-30T10:25:37.507Z,1.33
2017-06-30T10:28:04.510Z,1.60
2017-06-30T10:30:31.437Z,1.30
2017-06-30T10:32:58.267Z,1.30
2017-06-30T10:35:25.107Z,1.00
2017-06-30T10:37:52.058Z,1.03
2017-06-30T10:40:18.884Z,1.30
2017-06-30T10:42:45.796Z,0.90
2017-06-30T10:45:12.775Z,1.60
2017-06-30T10:47:40.444Z,1.30
2017-06-30T10:50:07.314Z,1.40
2017-06-30T10:52:35.968Z,2.13
2017-06-30T10:55:04.769Z,5.20
2017-06-30T10:57:32.282Z,3.50
2017-06-30T11:00:00.073Z,10.07
2017-06-30T11:02:27.460Z,42.67
2017-06-30T11:04:54.407Z,13.83
2017-06-30T11:07:21.246Z,3.73
2017-06-30T11:09:48.144Z,6.50
2017-06-30T11:12:15.296Z,4.50
2017-06-30T11:14:43.411Z,3.97
2017-06-30T11:17:11.794Z,10.80
2017-06-30T11:19:39.449Z,2.70
2017-06-30T11:22:06.385Z,3.07
2017-06-30T11:24:34.030Z,36.00
2017-06-30T11:27:00.867Z,33.33
2017-06-30T11:29:27.715Z,66.43
2017-06-30T11:31:54.640Z,35.33
2017-06-30T11:34:21.560Z,1.77
2017-06-30T11:36:48.415Z,2.80
2017-06-30T11:39:16.466Z,1.43
2017-06-30T11:41:44.656Z,1.30
2017-06-30T11:44:14.633Z,0.83
2017-06-30T11:46:42.081Z,1.00
2017-06-30T11:49:10.136Z,0.80
2017-06-30T11:51:37.791Z,1.20
2017-06-30T11:54:05.039Z,0.80
2017-06-30T11:56:32.586Z,0.80
2017-06-30T11:58:59.518Z,0.93
2017-06-30T12:01:26.370Z,1.47
2017-06-30T12:03:53.292Z,1.27
2017-06-30T12:06:20.325Z,0.67
2017-06-30T12:08:47.971Z,1.10
2017-06-30T12:11:14.806Z,0.90
2017-06-30T12:13:41.740Z,0.70
2017-06-30T12:16:08.590Z,0.70
2017-06-30T12:18:35.435Z,1.17
2017-06-30T12:21:02.409Z,0.80
2017-06-30T12:23:30.024Z,0.80
2017-06-30T12:25:56.969Z,2.00
2017-06-30T12:28:27.395Z,2.00
2017-06-30T12:30:54.283Z,1.30
2017-06-30T12:33:24.960Z,0.77
2017-06-30T12:35:51.869Z,1.27
2017-06-30T12:38:18.780Z,0.90
2017-06-30T12:40:48.740Z,1.23
2017-06-30T12:43:17.351Z,1.50
2017-06-30T12:45:44.382Z,1.03
2017-06-30T12:48:11.223Z,1.20
2017-06-30T12:50:38.072Z,0.63
2017-06-30T12:53:05.895Z,1.10
2017-06-30T12:55:34.344Z,0.83
2017-06-30T12:58:01.704Z,0.97
2017-06-30T13:00:28.712Z,0.60
2017-06-30T13:02:56.406Z,0.83
2017-06-30T13:05:23.339Z,0.90
2017-06-30T13:07:50.187Z,0.77
2017-06-30T13:10:17.027Z,0.83
2017-06-30T13:12:44.000Z,0.73
2017-06-30T13:15:10.847Z,1.10
2017-06-30T13:17:37.667Z,0.97
2017-06-30T13:20:04.587Z,0.70
2017-06-30T13:22:32.421Z,1.00
2017-06-30T13:24:59.246Z,1.10
2017-06-30T13:27:26.615Z,1.53
2017-06-30T13:29:53.513Z,0.97
2017-06-30T13:32:23.365Z,0.93
2017-06-30T13:34:50.292Z,1.13
2017-06-30T13:37:17.669Z,0.80
2017-06-30T13:39:44.640Z,0.90
2017-06-30T13:42:11.467Z,0.70
2017-06-30T13:44:41.059Z,0.63
2017-06-30T13:47:14.846Z,0.93
2017-06-30T13:49:41.694Z,1.27
2017-06-30T13:52:08.591Z,0.67
2017-06-30T13:54:35.460Z,0.80
2017-06-30T13:57:02.358Z,0.93
2017-06-30T13:59:29.272Z,0.70
2017-06-30T14:01:56.409Z,0.60
2017-06-30T14:04:23.356Z,1.13
2017-06-30T14:06:50.220Z,1.40
2017-06-30T14:09:17.074Z,0.90
2017-06-30T14:11:44.073Z,1.33
2017-06-30T14:14:11.781Z,0.70
2017-06-30T14:16:38.730Z,0.73
2017-06-30T14:19:05.592Z,0.80
2017-06-30T14:21:32.431Z,0.90
2017-06-30T14:23:59.353Z,0.70
2017-06-30T14:26:26.206Z,0.93
2017-06-30T14:28:53.107Z,0.90
2017-06-30T14:31:21.147Z,0.70
2017-06-30T14:33:48.426Z,0.83
2017-06-30T14:36:16.010Z,1.27
2017-06-30T14:38:46.052Z,0.87
2017-06-30T14:41:12.949Z,0.87
2017-06-30T14:43:40.576Z,0.67
2017-06-30T14:46:07.509Z,0.60
2017-06-30T14:48:34.435Z,0.77
2017-06-30T14:51:01.333Z,0.90
2017-06-30T14:53:28.339Z,0.80
2017-06-30T14:55:55.191Z,0.80
2017-06-30T14:58:22.112Z,1.33
2017-06-30T15:00:48.970Z,0.90
2017-06-30T15:03:16.373Z,1.03
2017-06-30T15:05:45.985Z,0.80
2017-06-30T15:08:12.891Z,0.90
2017-06-30T15:10:39.775Z,0.90
2017-06-30T15:13:06.699Z,1.00
2017-06-30T15:15:33.618Z,0.73
2017-06-30T15:18:00.454Z,0.67
2017-06-30T15:20:27.460Z,0.87
2017-06-30T15:22:54.420Z,0.90
2017-06-30T15:25:22.071Z,0.80
2017-06-30T15:27:48.948Z,1.17
2017-06-30T15:30:15.877Z,0.70
2017-06-30T15:32:43.535Z,0.80
2017-06-30T15:35:11.109Z,0.60
2017-06-30T15:37:38.039Z,0.87
2017-06-30T15:40:05.636Z,0.60
2017-06-30T15:42:33.556Z,1.30
2017-06-30T15:45:00.459Z,0.73
2017-06-30T15:47:27.302Z,0.90
2017-06-30T15:50:07.962Z,0.90
2017-06-30T15:52:54.647Z,1.07
2017-06-30T15:55:22.328Z,0.73
2017-06-30T15:57:49.239Z,0.73
2017-06-30T16:00:16.151Z,0.90
2017-06-30T16:02:42.988Z,0.83
2017-06-30T16:05:11.808Z,0.90
2017-06-30T16:07:46.233Z,0.80
2017-06-30T16:10:14.335Z,0.77
2017-06-30T16:12:57.624Z,0.77
2017-06-30T16:15:25.288Z,0.60
2017-06-30T16:17:52.191Z,1.23
2017-06-30T16:20:19.754Z,0.90
2017-06-30T16:22:49.091Z,0.70
2017-06-30T16:25:15.924Z,1.10
2017-06-30T16:27:49.135Z,1.50
2017-06-30T16:30:16.785Z,0.90
2017-06-30T16:32:45.635Z,0.97
2017-06-30T16:35:15.635Z,0.60
2017-06-30T16:37:44.580Z,0.60
2017-06-30T16:40:12.895Z,1.13
2017-06-30T16:42:41.122Z,1.20
2017-06-30T16:45:08.677Z,1.00
2017-06-30T16:47:36.294Z,1.03
2017-06-30T16:50:03.272Z,0.70
2017-06-30T16:52:32.897Z,0.60
2017-06-30T16:55:09.544Z,0.80
2017-06-30T16:57:38.936Z,0.60
2017-06-30T17:00:07.553Z,0.80
2017-06-30T17:02:37.705Z,0.70
2017-06-30T17:05:04.555Z,0.60
2017-06-30T17:07:31.478Z,0.63
2017-06-30T17:10:01.826Z,0.60
2017-06-30T17:12:29.353Z,0.60
2017-06-30T17:14:57.976Z,0.60
2017-06-30T17:17:24.827Z,0.90
2017-06-30T17:19:52.810Z,0.80
2017-06-30T17:22:19.821Z,0.70
2017-06-30T17:24:46.762Z,0.67
2017-06-30T17:27:13.610Z,1.00
2017-06-30T17:29:40.675Z,0.70
2017-06-30T17:32:08.305Z,0.90
2017-06-30T17:34:36.441Z,0.63
2017-06-30T17:37:04.492Z,1.00
2017-06-30T17:39:31.363Z,0.70
2017-06-30T17:41:58.263Z,0.70
2017-06-30T17:44:25.112Z,0.73
2017-06-30T17:46:53.466Z,1.10
2017-06-30T17:49:20.382Z,0.60
2017-06-30T17:51:48.791Z,0.80
2017-06-30T17:54:20.742Z,0.60
2017-06-30T17:56:48.067Z,0.90
2017-06-30T17:59:16.757Z,1.07
2017-06-30T18:01:47.526Z,0.77
2017-06-30T18:04:14.372Z,0.70
2017-06-30T18:06:41.223Z,0.60
2017-06-30T18:09:08.115Z,0.77
2017-06-30T18:11:34.996Z,0.80
2017-06-30T18:14:02.704Z,1.00
2017-06-30T18:16:30.031Z,0.90
2017-06-30T18:18:57.022Z,1.00
2017-06-30T18:21:23.943Z,0.70
2017-06-30T18:23:51.008Z,1.10
2017-06-30T18:26:18.000Z,1.07
2017-06-30T18:28:45.770Z,1.10
2017-06-30T18:31:12.771Z,1.13
2017-06-30T18:33:39.968Z,1.00
2017-06-30T18:36:07.297Z,1.03
2017-06-30T18:38:35.227Z,1.00
2017-06-30T18:41:02.511Z,0.90
2017-06-30T18:43:30.744Z,1.10
2017-06-30T18:45:57.987Z,0.63
2017-06-30T18:48:25.360Z,0.70
2017-06-30T18:50:52.951Z,0.70
2017-06-30T18:53:20.453Z,0.90
2017-06-30T18:55:47.914Z,1.00
2017-06-30T18:58:15.652Z,1.30
2017-06-30T19:00:43.456Z,1.00
2017-06-30T19:03:11.274Z,1.40
2017-06-30T19:05:39.258Z,1.13
2017-06-30T19:08:07.660Z,1.10
2017-06-30T19:10:36.014Z,1.90
2017-06-30T19:13:04.332Z,1.67
2017-06-30T19:15:33.433Z,2.90
2017-06-30T19:18:02.123Z,1.43
2017-06-30T19:20:30.412Z,1.40
2017-06-30T19:22:59.055Z,1.00
2017-06-30T19:25:27.594Z,1.00
2017-06-30T19:27:56.007Z,0.87
2017-06-30T19:30:24.335Z,1.20
2017-06-30T19:32:53.667Z,1.10
2017-06-30T19:35:22.476Z,0.83
2017-06-30T19:37:51.420Z,1.10
2017-06-30T19:40:19.834Z,1.53
2017-06-30T19:42:48.051Z,1.20
2017-06-30T19:45:16.210Z,1.10
2017-06-30T19:47:44.617Z,1.50
2017-06-30T19:50:13.744Z,1.20
2017-06-30T19:52:42.051Z,1.67
2017-06-30T19:55:10.409Z,1.20
2017-06-30T19:57:38.729Z,1.30
2017-06-30T20:00:07.122Z,1.33
2017-06-30T20:02:36.074Z,0.80
2017-06-30T20:05:04.283Z,1.13
2017-06-30T20:07:33.564Z,1.83
2017-06-30T20:10:03.321Z,1.07
2017-06-30T20:12:32.431Z,0.77
2017-06-30T20:15:00.660Z,0.83
2017-06-30T20:17:29.429Z,1.07
2017-06-30T20:19:57.703Z,0.70
2017-06-30T20:22:26.190Z,0.70
2017-06-30T20:24:54.721Z,0.60
2017-06-30T20:27:23.861Z,0.70
2017-06-30T20:29:52.325Z,0.97
2017-06-30T20:32:20.643Z,0.80
2017-06-30T20:34:49.859Z,0.70
2017-06-30T20:37:18.153Z,0.90
2017-06-30T20:39:47.279Z,0.70
2017-06-30T20:42:15.464Z,0.83
2017-06-30T20:44:43.755Z,0.67
2017-06-30T20:47:12.233Z,0.80
2017-06-30T20:49:40.206Z,0.53
2017-06-30T20:52:07.741Z,0.60
2017-06-30T20:54:35.645Z,0.63
2017-06-30T20:57:03.646Z,0.70
2017-06-30T20:59:31.494Z,0.50
2017-06-30T21:01:59.302Z,0.60
2017-06-30T21:04:27.885Z,0.77
2017-06-30T21:06:55.793Z,0.80
2017-06-30T21:09:23.427Z,0.70
2017-06-30T21:11:52.418Z,1.13
2017-06-30T21:14:19.904Z,1.00
2017-06-30T21:16:48.419Z,0.40
2017-06-30T21:19:16.163Z,0.80
2017-06-30T21:21:46.893Z,0.73
2017-06-30T21:24:15.856Z,0.70
2017-06-30T21:26:43.422Z,1.00
2017-06-30T21:29:10.320Z,0.80
2017-06-30T21:31:37.273Z,0.50
2017-06-30T21:34:04.888Z,0.77
2017-06-30T21:36:32.271Z,0.60
2017-06-30T21:39:03.508Z,0.47
2017-06-30T21:41:38.262Z,0.50
2017-06-30T21:44:07.944Z,0.60
2017-06-30T21:46:34.890Z,0.43
2017-06-30T21:49:03.067Z,0.87
2017-06-30T21:51:32.143Z,0.70
2017-06-30T21:54:01.575Z,0.40
2017-06-30T21:56:28.483Z,0.40
2017-06-30T21:58:55.380Z,0.40
2017-06-30T22:01:22.355Z,0.60
2017-06-30T22:03:49.206Z,0.40
2017-06-30T22:06:16.115Z,0.80
2017-06-30T22:08:44.229Z,0.83
2017-06-30T22:11:12.659Z,0.60
2017-06-30T22:13:39.628Z,0.40
2017-06-30T22:16:07.331Z,0.40
2017-06-30T22:18:34.246Z,0.50
2017-06-30T22:21:01.100Z,0.50
2017-06-30T22:23:27.987Z,0.40
2017-06-30T22:25:55.023Z,0.40
2017-06-30T22:28:21.953Z,0.83
2017-06-30T22:30:48.771Z,0.60
2017-06-30T22:33:16.412Z,0.60
2017-06-30T22:35:43.999Z,0.60
2017-06-30T22:38:10.836Z,0.60
2017-06-30T22:40:38.488Z,0.70
2017-06-30T22:43:05.315Z,0.90
2017-06-30T22:45:32.177Z,0.70
2017-06-30T22:47:59.066Z,0.60
2017-06-30T22:50:25.968Z,0.73
2017-06-30T22:52:53.648Z,0.70
2017-06-30T22:55:20.471Z,0.60
2017-06-30T22:57:47.353Z,0.77
2017-06-30T23:00:14.195Z,0.87
2017-06-30T23:02:41.147Z,1.00
2017-06-30T23:05:07.991Z,0.77
2017-06-30T23:07:34.823Z,0.90
2017-06-30T23:10:01.708Z,0.87
2017-06-30T23:12:28.637Z,0.60
2017-06-30T23:14:55.528Z,0.60
2017-06-30T23:17:22.393Z,0.83
2017-06-30T23:19:49.327Z,0.70
2017-06-30T23:22:16.900Z,0.90
2017-06-30T23:24:43.755Z,0.60
2017-06-30T23:27:10.659Z,0.63
2017-06-30T23:29:37.491Z,1.00
2017-06-30T23:32:04.395Z,0.90
2017-06-30T23:34:31.222Z,0.60
2017-06-30T23:36:58.119Z,0.67
2017-06-30T23:39:24.955Z,0.63
2017-06-30T23:41:51.875Z,1.20
2017-06-30T23:44:18.739Z,1.30
2017-06-30T23:46:45.600Z,0.63
2017-06-30T23:49:12.508Z,0.73
2017-06-30T23:51:39.338Z,0.70
2017-06-30T23:54:06.223Z,0.97
2017-06-30T23:56:33.055Z,0.80
2017-06-30T23:58:59.961Z,0.80
